sensor_id;sensor_type;location;lat;lon;timestamp;temperature;humidity
11491;DHT22;5802;52.832;4.758;2023-04-25T00:01:01;23.70;41.70
11491;DHT22;5802;52.832;4.758;2023-04-25T00:03:27;23.70;41.60
11491;DHT22;5802;52.832;4.758;2023-04-25T00:05:55;23.70;41.70
11491;DHT22;5802;52.832;4.758;2023-04-25T00:08:24;23.70;41.70
11491;DHT22;5802;52.832;4.758;2023-04-25T00:10:51;23.70;41.60
11491;DHT22;5802;52.832;4.758;2023-04-25T00:13:17;23.70;41.60
11491;DHT22;5802;52.832;4.758;2023-04-25T00:15:44;23.70;41.60
11491;DHT22;5802;52.832;4.758;2023-04-25T00:18:11;23.70;41.60
11491;DHT22;5802;52.832;4.758;2023-04-25T00:20:38;23.70;41.50
11491;DHT22;5802;52.832;4.758;2023-04-25T00:23:05;23.70;41.50
11491;DHT22;5802;52.832;4.758;2023-04-25T00:25:34;23.70;41.50
11491;DHT22;5802;52.832;4.758;2023-04-25T00:28:01;23.70;41.50
11491;DHT22;5802;52.832;4.758;2023-04-25T00:30:28;23.70;41.50
11491;DHT22;5802;52.832;4.758;2023-04-25T00:32:54;23.70;41.40
11491;DHT22;5802;52.832;4.758;2023-04-25T00:35:21;23.70;41.40
11491;DHT22;5802;52.832;4.758;2023-04-25T00:37:47;23.70;41.40
11491;DHT22;5802;52.832;4.758;2023-04-25T00:40:15;23.70;41.40
11491;DHT22;5802;52.832;4.758;2023-04-25T00:42:43;23.70;41.40
11491;DHT22;5802;52.832;4.758;2023-04-25T00:45:13;23.70;41.30
11491;DHT22;5802;52.832;4.758;2023-04-25T00:47:40;23.70;41.40
11491;DHT22;5802;52.832;4.758;2023-04-25T00:50:08;23.70;41.30
11491;DHT22;5802;52.832;4.758;2023-04-25T00:52:36;23.70;41.60
11491;DHT22;5802;52.832;4.758;2023-04-25T00:55:03;23.70;41.30
11491;DHT22;5802;52.832;4.758;2023-04-25T00:57:30;23.70;41.90
11491;DHT22;5802;52.832;4.758;2023-04-25T00:59:58;23.60;41.20
11491;DHT22;5802;52.832;4.758;2023-04-25T01:02:25;23.70;41.20
11491;DHT22;5802;52.832;4.758;2023-04-25T01:04:52;23.70;41.20
11491;DHT22;5802;52.832;4.758;2023-04-25T01:07:19;23.70;41.20
11491;DHT22;5802;52.832;4.758;2023-04-25T01:09:46;23.70;41.20
11491;DHT22;5802;52.832;4.758;2023-04-25T01:12:13;23.70;41.20
11491;DHT22;5802;52.832;4.758;2023-04-25T01:14:40;23.70;41.10
11491;DHT22;5802;52.832;4.758;2023-04-25T01:17:09;23.70;41.20
11491;DHT22;5802;52.832;4.758;2023-04-25T01:19:35;23.70;41.10
11491;DHT22;5802;52.832;4.758;2023-04-25T01:22:04;23.70;41.10
11491;DHT22;5802;52.832;4.758;2023-04-25T01:24:31;23.70;41.10
11491;DHT22;5802;52.832;4.758;2023-04-25T01:26:58;23.70;41.00
11491;DHT22;5802;52.832;4.758;2023-04-25T01:29:28;23.70;41.10
11491;DHT22;5802;52.832;4.758;2023-04-25T01:31:55;23.60;41.00
11491;DHT22;5802;52.832;4.758;2023-04-25T01:34:24;23.70;41.10
11491;DHT22;5802;52.832;4.758;2023-04-25T01:36:51;23.60;41.00
11491;DHT22;5802;52.832;4.758;2023-04-25T01:39:20;23.60;41.00
11491;DHT22;5802;52.832;4.758;2023-04-25T01:41:47;23.60;40.90
11491;DHT22;5802;52.832;4.758;2023-04-25T01:44:15;23.60;40.90
11491;DHT22;5802;52.832;4.758;2023-04-25T01:46:42;23.60;40.90
11491;DHT22;5802;52.832;4.758;2023-04-25T01:49:08;23.60;40.90
11491;DHT22;5802;52.832;4.758;2023-04-25T01:51:35;23.60;40.90
11491;DHT22;5802;52.832;4.758;2023-04-25T01:54:03;23.60;40.70
11491;DHT22;5802;52.832;4.758;2023-04-25T01:56:31;23.60;40.50
11491;DHT22;5802;52.832;4.758;2023-04-25T01:58:59;23.60;40.50
11491;DHT22;5802;52.832;4.758;2023-04-25T02:01:25;23.60;40.60
11491;DHT22;5802;52.832;4.758;2023-04-25T02:03:52;23.60;40.50
11491;DHT22;5802;52.832;4.758;2023-04-25T02:06:19;23.60;40.60
11491;DHT22;5802;52.832;4.758;2023-04-25T02:08:45;23.60;40.60
11491;DHT22;5802;52.832;4.758;2023-04-25T02:11:12;23.60;40.60
11491;DHT22;5802;52.832;4.758;2023-04-25T02:13:40;23.60;40.60
11491;DHT22;5802;52.832;4.758;2023-04-25T02:16:07;23.60;40.50
11491;DHT22;5802;52.832;4.758;2023-04-25T02:18:34;23.60;40.50
11491;DHT22;5802;52.832;4.758;2023-04-25T02:21:02;23.60;40.50
11491;DHT22;5802;52.832;4.758;2023-04-25T02:23:29;23.60;40.80
11491;DHT22;5802;52.832;4.758;2023-04-25T02:25:56;23.60;40.50
11491;DHT22;5802;52.832;4.758;2023-04-25T02:28:23;23.60;40.50
11491;DHT22;5802;52.832;4.758;2023-04-25T02:30:52;23.60;40.50
11491;DHT22;5802;52.832;4.758;2023-04-25T02:33:18;23.60;40.50
11491;DHT22;5802;52.832;4.758;2023-04-25T02:35:46;23.60;40.60
11491;DHT22;5802;52.832;4.758;2023-04-25T02:38:13;23.60;40.50
11491;DHT22;5802;52.832;4.758;2023-04-25T02:40:40;23.60;40.50
11491;DHT22;5802;52.832;4.758;2023-04-25T02:43:07;23.60;40.60
11491;DHT22;5802;52.832;4.758;2023-04-25T02:45:33;23.60;40.50
11491;DHT22;5802;52.832;4.758;2023-04-25T02:48:02;23.60;40.50
11491;DHT22;5802;52.832;4.758;2023-04-25T02:50:28;23.60;40.50
11491;DHT22;5802;52.832;4.758;2023-04-25T02:52:55;23.60;40.50
11491;DHT22;5802;52.832;4.758;2023-04-25T02:55:22;23.60;40.50
11491;DHT22;5802;52.832;4.758;2023-04-25T02:57:49;23.60;40.50
11491;DHT22;5802;52.832;4.758;2023-04-25T03:00:16;23.60;40.50
11491;DHT22;5802;52.832;4.758;2023-04-25T03:02:43;23.60;40.50
11491;DHT22;5802;52.832;4.758;2023-04-25T03:05:11;23.60;40.50
11491;DHT22;5802;52.832;4.758;2023-04-25T03:07:37;23.60;40.50
11491;DHT22;5802;52.832;4.758;2023-04-25T03:10:06;23.60;40.50
11491;DHT22;5802;52.832;4.758;2023-04-25T03:12:33;23.60;40.50
11491;DHT22;5802;52.832;4.758;2023-04-25T03:14:59;23.60;40.50
11491;DHT22;5802;52.832;4.758;2023-04-25T03:17:26;23.60;40.50
11491;DHT22;5802;52.832;4.758;2023-04-25T03:19:53;23.60;40.50
11491;DHT22;5802;52.832;4.758;2023-04-25T03:22:21;23.60;40.50
11491;DHT22;5802;52.832;4.758;2023-04-25T03:24:48;23.60;40.50
11491;DHT22;5802;52.832;4.758;2023-04-25T03:27:14;23.60;40.50
11491;DHT22;5802;52.832;4.758;2023-04-25T03:29:41;23.60;40.40
11491;DHT22;5802;52.832;4.758;2023-04-25T03:32:08;23.60;40.40
11491;DHT22;5802;52.832;4.758;2023-04-25T03:34:35;23.60;40.40
11491;DHT22;5802;52.832;4.758;2023-04-25T03:37:01;23.60;40.30
11491;DHT22;5802;52.832;4.758;2023-04-25T03:39:30;23.60;40.40
11491;DHT22;5802;52.832;4.758;2023-04-25T03:41:57;23.50;40.30
11491;DHT22;5802;52.832;4.758;2023-04-25T03:44:24;23.50;40.30
11491;DHT22;5802;52.832;4.758;2023-04-25T03:46:50;23.60;40.40
11491;DHT22;5802;52.832;4.758;2023-04-25T03:49:17;23.60;40.40
11491;DHT22;5802;52.832;4.758;2023-04-25T03:51:44;23.50;40.30
11491;DHT22;5802;52.832;4.758;2023-04-25T03:54:10;23.50;40.30
11491;DHT22;5802;52.832;4.758;2023-04-25T03:56:38;23.50;40.30
11491;DHT22;5802;52.832;4.758;2023-04-25T03:59:05;23.50;40.20
11491;DHT22;5802;52.832;4.758;2023-04-25T04:01:33;23.50;40.30
11491;DHT22;5802;52.832;4.758;2023-04-25T04:03:59;23.50;40.30
11491;DHT22;5802;52.832;4.758;2023-04-25T04:06:26;23.50;40.30
11491;DHT22;5802;52.832;4.758;2023-04-25T04:08:54;23.50;40.30
11491;DHT22;5802;52.832;4.758;2023-04-25T04:11:20;23.50;40.30
11491;DHT22;5802;52.832;4.758;2023-04-25T04:13:48;23.50;40.30
11491;DHT22;5802;52.832;4.758;2023-04-25T04:16:15;23.50;40.30
11491;DHT22;5802;52.832;4.758;2023-04-25T04:18:42;23.50;40.30
11491;DHT22;5802;52.832;4.758;2023-04-25T04:21:08;23.50;40.20
11491;DHT22;5802;52.832;4.758;2023-04-25T04:23:35;23.50;40.20
11491;DHT22;5802;52.832;4.758;2023-04-25T04:26:03;23.50;40.20
11491;DHT22;5802;52.832;4.758;2023-04-25T04:28:30;23.50;40.20
11491;DHT22;5802;52.832;4.758;2023-04-25T04:30:58;23.50;40.90
11491;DHT22;5802;52.832;4.758;2023-04-25T04:33:26;23.50;40.20
11491;DHT22;5802;52.832;4.758;2023-04-25T04:35:53;23.50;40.20
11491;DHT22;5802;52.832;4.758;2023-04-25T04:38:21;23.50;40.10
11491;DHT22;5802;52.832;4.758;2023-04-25T04:40:47;23.50;40.10
11491;DHT22;5802;52.832;4.758;2023-04-25T04:43:15;23.50;40.20
11491;DHT22;5802;52.832;4.758;2023-04-25T04:45:44;23.50;40.10
11491;DHT22;5802;52.832;4.758;2023-04-25T04:48:12;23.50;40.10
11491;DHT22;5802;52.832;4.758;2023-04-25T04:50:39;23.50;40.20
11491;DHT22;5802;52.832;4.758;2023-04-25T04:53:06;23.50;40.10
11491;DHT22;5802;52.832;4.758;2023-04-25T04:55:33;23.50;40.10
11491;DHT22;5802;52.832;4.758;2023-04-25T04:58:00;23.50;40.10
11491;DHT22;5802;52.832;4.758;2023-04-25T05:00:27;23.50;40.10
11491;DHT22;5802;52.832;4.758;2023-04-25T05:02:54;23.50;40.10
11491;DHT22;5802;52.832;4.758;2023-04-25T05:05:22;23.50;40.00
11491;DHT22;5802;52.832;4.758;2023-04-25T05:07:49;23.50;40.00
11491;DHT22;5802;52.832;4.758;2023-04-25T05:10:16;23.50;40.00
11491;DHT22;5802;52.832;4.758;2023-04-25T05:12:43;23.50;40.00
11491;DHT22;5802;52.832;4.758;2023-04-25T05:15:10;23.50;40.00
11491;DHT22;5802;52.832;4.758;2023-04-25T05:17:37;23.50;40.00
11491;DHT22;5802;52.832;4.758;2023-04-25T05:20:05;23.50;39.90
11491;DHT22;5802;52.832;4.758;2023-04-25T05:22:33;23.50;39.90
11491;DHT22;5802;52.832;4.758;2023-04-25T05:25:00;23.50;39.90
11491;DHT22;5802;52.832;4.758;2023-04-25T05:27:28;23.50;39.90
11491;DHT22;5802;52.832;4.758;2023-04-25T05:29:55;23.50;39.80
11491;DHT22;5802;52.832;4.758;2023-04-25T05:32:21;23.50;39.80
11491;DHT22;5802;52.832;4.758;2023-04-25T05:34:48;23.50;39.80
11491;DHT22;5802;52.832;4.758;2023-04-25T05:37:16;23.50;39.80
11491;DHT22;5802;52.832;4.758;2023-04-25T05:39:44;23.50;39.80
11491;DHT22;5802;52.832;4.758;2023-04-25T05:42:11;23.50;39.80
11491;DHT22;5802;52.832;4.758;2023-04-25T05:44:38;23.50;39.80
11491;DHT22;5802;52.832;4.758;2023-04-25T05:47:04;23.60;39.80
11491;DHT22;5802;52.832;4.758;2023-04-25T05:49:31;23.60;39.90
11491;DHT22;5802;52.832;4.758;2023-04-25T05:51:58;23.60;39.80
11491;DHT22;5802;52.832;4.758;2023-04-25T05:54:25;23.60;39.80
11491;DHT22;5802;52.832;4.758;2023-04-25T05:56:53;23.60;39.80
11491;DHT22;5802;52.832;4.758;2023-04-25T05:59:19;23.60;39.80
11491;DHT22;5802;52.832;4.758;2023-04-25T06:01:46;23.60;39.70
11491;DHT22;5802;52.832;4.758;2023-04-25T06:04:13;23.60;39.70
11491;DHT22;5802;52.832;4.758;2023-04-25T06:06:39;23.60;39.70
11491;DHT22;5802;52.832;4.758;2023-04-25T06:09:06;23.60;39.70
11491;DHT22;5802;52.832;4.758;2023-04-25T06:11:33;23.60;39.70
11491;DHT22;5802;52.832;4.758;2023-04-25T06:14:01;23.60;40.40
11491;DHT22;5802;52.832;4.758;2023-04-25T06:16:28;23.60;39.70
11491;DHT22;5802;52.832;4.758;2023-04-25T06:18:54;23.60;39.70
11491;DHT22;5802;52.832;4.758;2023-04-25T06:21:22;23.60;39.80
11491;DHT22;5802;52.832;4.758;2023-04-25T06:23:48;23.60;39.70
11491;DHT22;5802;52.832;4.758;2023-04-25T06:26:15;23.60;39.80
11491;DHT22;5802;52.832;4.758;2023-04-25T06:28:41;23.60;39.70
11491;DHT22;5802;52.832;4.758;2023-04-25T06:31:09;23.70;40.30
11491;DHT22;5802;52.832;4.758;2023-04-25T06:33:36;23.70;39.50
11491;DHT22;5802;52.832;4.758;2023-04-25T06:36:03;23.70;39.50
11491;DHT22;5802;52.832;4.758;2023-04-25T06:38:30;23.70;39.50
11491;DHT22;5802;52.832;4.758;2023-04-25T06:40:57;23.70;39.40
11491;DHT22;5802;52.832;4.758;2023-04-25T06:43:23;23.70;39.40
11491;DHT22;5802;52.832;4.758;2023-04-25T06:45:50;23.70;39.40
11491;DHT22;5802;52.832;4.758;2023-04-25T06:48:18;23.70;39.40
11491;DHT22;5802;52.832;4.758;2023-04-25T06:50:45;23.70;39.40
11491;DHT22;5802;52.832;4.758;2023-04-25T06:53:11;23.70;39.40
11491;DHT22;5802;52.832;4.758;2023-04-25T06:55:38;23.70;39.40
11491;DHT22;5802;52.832;4.758;2023-04-25T06:58:06;23.70;39.30
11491;DHT22;5802;52.832;4.758;2023-04-25T07:00:33;23.70;39.30
11491;DHT22;5802;52.832;4.758;2023-04-25T07:03:00;23.70;39.30
11491;DHT22;5802;52.832;4.758;2023-04-25T07:05:28;23.70;39.30
11491;DHT22;5802;52.832;4.758;2023-04-25T07:07:55;23.70;39.30
11491;DHT22;5802;52.832;4.758;2023-04-25T07:10:22;23.70;39.40
11491;DHT22;5802;52.832;4.758;2023-04-25T07:12:49;23.80;39.30
11491;DHT22;5802;52.832;4.758;2023-04-25T07:15:17;23.80;39.30
11491;DHT22;5802;52.832;4.758;2023-04-25T07:17:44;23.80;39.20
11491;DHT22;5802;52.832;4.758;2023-04-25T07:20:10;23.90;39.90
11491;DHT22;5802;52.832;4.758;2023-04-25T07:22:39;23.90;39.20
11491;DHT22;5802;52.832;4.758;2023-04-25T07:25:06;23.90;39.10
11491;DHT22;5802;52.832;4.758;2023-04-25T07:27:33;23.90;39.10
11491;DHT22;5802;52.832;4.758;2023-04-25T07:30:00;23.90;39.10
11491;DHT22;5802;52.832;4.758;2023-04-25T07:32:27;23.90;39.10
11491;DHT22;5802;52.832;4.758;2023-04-25T07:34:54;23.90;39.00
11491;DHT22;5802;52.832;4.758;2023-04-25T07:37:21;24.00;39.10
11491;DHT22;5802;52.832;4.758;2023-04-25T07:39:49;24.00;39.10
11491;DHT22;5802;52.832;4.758;2023-04-25T07:42:16;24.00;38.80
11491;DHT22;5802;52.832;4.758;2023-04-25T07:44:42;24.10;38.70
11491;DHT22;5802;52.832;4.758;2023-04-25T07:47:09;24.20;38.70
11491;DHT22;5802;52.832;4.758;2023-04-25T07:49:37;24.20;38.60
11491;DHT22;5802;52.832;4.758;2023-04-25T07:52:05;24.20;38.50
11491;DHT22;5802;52.832;4.758;2023-04-25T07:54:32;24.30;38.50
11491;DHT22;5802;52.832;4.758;2023-04-25T07:57:00;24.30;38.50
11491;DHT22;5802;52.832;4.758;2023-04-25T07:59:27;24.30;38.50
11491;DHT22;5802;52.832;4.758;2023-04-25T08:01:54;24.30;38.50
11491;DHT22;5802;52.832;4.758;2023-04-25T08:04:22;24.20;38.40
11491;DHT22;5802;52.832;4.758;2023-04-25T08:06:49;24.20;38.60
11491;DHT22;5802;52.832;4.758;2023-04-25T08:09:16;24.30;38.60
11491;DHT22;5802;52.832;4.758;2023-04-25T08:11:43;24.30;38.50
11491;DHT22;5802;52.832;4.758;2023-04-25T08:14:11;24.40;38.50
11491;DHT22;5802;52.832;4.758;2023-04-25T08:16:38;24.50;38.40
11491;DHT22;5802;52.832;4.758;2023-04-25T08:19:05;24.50;38.40
11491;DHT22;5802;52.832;4.758;2023-04-25T08:21:32;24.60;38.30
11491;DHT22;5802;52.832;4.758;2023-04-25T08:23:59;24.60;38.20
11491;DHT22;5802;52.832;4.758;2023-04-25T08:26:26;24.70;38.10
11491;DHT22;5802;52.832;4.758;2023-04-25T08:28:52;24.80;38.10
11491;DHT22;5802;52.832;4.758;2023-04-25T08:31:20;24.80;38.00
11491;DHT22;5802;52.832;4.758;2023-04-25T08:33:47;24.90;37.90
11491;DHT22;5802;52.832;4.758;2023-04-25T08:36:15;24.90;37.90
11491;DHT22;5802;52.832;4.758;2023-04-25T08:38:41;25.00;37.80
11491;DHT22;5802;52.832;4.758;2023-04-25T08:41:08;25.10;37.80
11491;DHT22;5802;52.832;4.758;2023-04-25T08:43:37;25.10;37.70
11491;DHT22;5802;52.832;4.758;2023-04-25T08:46:08;25.10;37.60
11491;DHT22;5802;52.832;4.758;2023-04-25T08:48:36;25.20;37.50
11491;DHT22;5802;52.832;4.758;2023-04-25T08:51:06;25.20;37.50
11491;DHT22;5802;52.832;4.758;2023-04-25T08:53:34;25.30;37.50
11491;DHT22;5802;52.832;4.758;2023-04-25T08:56:01;25.30;37.50
11491;DHT22;5802;52.832;4.758;2023-04-25T08:58:32;25.30;37.50
11491;DHT22;5802;52.832;4.758;2023-04-25T09:00:59;25.40;37.50
11491;DHT22;5802;52.832;4.758;2023-04-25T09:03:26;25.50;36.90
11491;DHT22;5802;52.832;4.758;2023-04-25T09:05:55;25.60;35.80
11491;DHT22;5802;52.832;4.758;2023-04-25T09:08:22;25.60;34.70
11491;DHT22;5802;52.832;4.758;2023-04-25T09:10:48;25.60;34.10
11491;DHT22;5802;52.832;4.758;2023-04-25T09:13:24;25.60;33.80
11491;DHT22;5802;52.832;4.758;2023-04-25T09:15:54;25.60;33.30
11491;DHT22;5802;52.832;4.758;2023-04-25T09:18:24;25.50;32.70
11491;DHT22;5802;52.832;4.758;2023-04-25T09:21:04;25.50;31.20
11491;DHT22;5802;52.832;4.758;2023-04-25T09:23:39;25.40;30.60
11491;DHT22;5802;52.832;4.758;2023-04-25T09:26:07;25.40;31.80
11491;DHT22;5802;52.832;4.758;2023-04-25T09:28:34;25.30;32.30
11491;DHT22;5802;52.832;4.758;2023-04-25T09:31:03;25.30;33.50
11491;DHT22;5802;52.832;4.758;2023-04-25T09:33:31;25.30;33.10
11491;DHT22;5802;52.832;4.758;2023-04-25T09:36:03;25.30;32.50
11491;DHT22;5802;52.832;4.758;2023-04-25T09:38:31;25.30;30.30
11491;DHT22;5802;52.832;4.758;2023-04-25T09:40:58;25.30;29.70
11491;DHT22;5802;52.832;4.758;2023-04-25T09:43:26;25.30;29.60
11491;DHT22;5802;52.832;4.758;2023-04-25T09:45:53;25.30;29.40
11491;DHT22;5802;52.832;4.758;2023-04-25T09:48:24;25.30;29.60
11491;DHT22;5802;52.832;4.758;2023-04-25T09:51:06;25.30;30.30
11491;DHT22;5802;52.832;4.758;2023-04-25T09:53:33;25.40;31.30
11491;DHT22;5802;52.832;4.758;2023-04-25T09:56:03;25.40;31.70
11491;DHT22;5802;52.832;4.758;2023-04-25T09:58:32;25.40;32.00
11491;DHT22;5802;52.832;4.758;2023-04-25T10:01:00;25.50;32.40
11491;DHT22;5802;52.832;4.758;2023-04-25T10:03:29;25.50;32.60
11491;DHT22;5802;52.832;4.758;2023-04-25T10:05:58;25.50;32.70
11491;DHT22;5802;52.832;4.758;2023-04-25T10:08:30;25.60;33.00
11491;DHT22;5802;52.832;4.758;2023-04-25T10:10:59;25.60;33.60
11491;DHT22;5802;52.832;4.758;2023-04-25T10:13:27;25.60;34.00
11491;DHT22;5802;52.832;4.758;2023-04-25T10:15:56;25.60;34.20
11491;DHT22;5802;52.832;4.758;2023-04-25T10:18:24;25.60;34.50
11491;DHT22;5802;52.832;4.758;2023-04-25T10:20:51;25.60;34.70
11491;DHT22;5802;52.832;4.758;2023-04-25T10:23:18;25.70;34.90
11491;DHT22;5802;52.832;4.758;2023-04-25T10:25:46;25.70;35.00
11491;DHT22;5802;52.832;4.758;2023-04-25T10:28:13;25.70;35.10
11491;DHT22;5802;52.832;4.758;2023-04-25T10:30:57;25.70;35.20
11491;DHT22;5802;52.832;4.758;2023-04-25T10:33:32;25.80;35.30
11491;DHT22;5802;52.832;4.758;2023-04-25T10:35:59;25.80;35.30
11491;DHT22;5802;52.832;4.758;2023-04-25T10:38:34;25.80;35.30
11491;DHT22;5802;52.832;4.758;2023-04-25T10:41:07;25.80;35.30
11491;DHT22;5802;52.832;4.758;2023-04-25T10:43:37;25.90;35.30
11491;DHT22;5802;52.832;4.758;2023-04-25T10:46:17;25.90;35.20
11491;DHT22;5802;52.832;4.758;2023-04-25T10:48:47;25.90;35.10
11491;DHT22;5802;52.832;4.758;2023-04-25T10:51:20;25.90;35.10
11491;DHT22;5802;52.832;4.758;2023-04-25T10:53:56;25.90;35.10
11491;DHT22;5802;52.832;4.758;2023-04-25T10:56:26;26.00;35.20
11491;DHT22;5802;52.832;4.758;2023-04-25T10:59:06;26.00;35.30
11491;DHT22;5802;52.832;4.758;2023-04-25T11:01:37;26.00;35.40
11491;DHT22;5802;52.832;4.758;2023-04-25T11:04:04;26.00;35.40
11491;DHT22;5802;52.832;4.758;2023-04-25T11:06:37;26.00;35.40
11491;DHT22;5802;52.832;4.758;2023-04-25T11:09:11;26.00;35.40
11491;DHT22;5802;52.832;4.758;2023-04-25T11:11:40;26.00;35.40
11491;DHT22;5802;52.832;4.758;2023-04-25T11:14:07;26.00;35.40
11491;DHT22;5802;52.832;4.758;2023-04-25T11:16:34;26.00;35.40
11491;DHT22;5802;52.832;4.758;2023-04-25T11:19:01;26.00;35.40
11491;DHT22;5802;52.832;4.758;2023-04-25T11:21:29;26.00;35.40
11491;DHT22;5802;52.832;4.758;2023-04-25T11:23:57;26.10;35.40
11491;DHT22;5802;52.832;4.758;2023-04-25T11:26:24;26.10;35.40
11491;DHT22;5802;52.832;4.758;2023-04-25T11:28:57;26.10;35.40
11491;DHT22;5802;52.832;4.758;2023-04-25T11:31:25;26.20;35.40
11491;DHT22;5802;52.832;4.758;2023-04-25T11:33:53;26.10;35.30
11491;DHT22;5802;52.832;4.758;2023-04-25T11:36:19;26.20;35.40
11491;DHT22;5802;52.832;4.758;2023-04-25T11:38:46;26.20;35.40
11491;DHT22;5802;52.832;4.758;2023-04-25T11:41:13;26.20;35.30
11491;DHT22;5802;52.832;4.758;2023-04-25T11:43:39;26.20;35.30
11491;DHT22;5802;52.832;4.758;2023-04-25T11:46:08;26.20;35.30
11491;DHT22;5802;52.832;4.758;2023-04-25T11:48:37;26.20;35.30
11491;DHT22;5802;52.832;4.758;2023-04-25T11:51:04;26.20;35.90
11491;DHT22;5802;52.832;4.758;2023-04-25T11:53:31;26.30;35.30
11491;DHT22;5802;52.832;4.758;2023-04-25T11:55:58;26.30;35.30
11491;DHT22;5802;52.832;4.758;2023-04-25T11:58:25;26.30;35.20
11491;DHT22;5802;52.832;4.758;2023-04-25T12:00:52;26.30;35.20
11491;DHT22;5802;52.832;4.758;2023-04-25T12:03:20;26.30;35.20
11491;DHT22;5802;52.832;4.758;2023-04-25T12:05:51;26.30;35.20
11491;DHT22;5802;52.832;4.758;2023-04-25T12:08:18;26.30;35.20
11491;DHT22;5802;52.832;4.758;2023-04-25T12:10:45;26.20;35.00
11491;DHT22;5802;52.832;4.758;2023-04-25T12:13:20;26.20;35.10
11491;DHT22;5802;52.832;4.758;2023-04-25T12:15:47;26.20;35.00
11491;DHT22;5802;52.832;4.758;2023-04-25T12:18:14;26.20;35.10
11491;DHT22;5802;52.832;4.758;2023-04-25T12:20:42;26.20;35.20
11491;DHT22;5802;52.832;4.758;2023-04-25T12:23:09;26.20;35.20
11491;DHT22;5802;52.832;4.758;2023-04-25T12:25:38;26.20;35.30
11491;DHT22;5802;52.832;4.758;2023-04-25T12:28:13;26.30;35.30
11491;DHT22;5802;52.832;4.758;2023-04-25T12:30:57;26.30;35.20
11491;DHT22;5802;52.832;4.758;2023-04-25T12:33:24;26.30;35.80
11491;DHT22;5802;52.832;4.758;2023-04-25T12:35:53;26.30;35.10
11491;DHT22;5802;52.832;4.758;2023-04-25T12:38:24;26.40;35.10
11491;DHT22;5802;52.832;4.758;2023-04-25T12:40:51;26.30;35.10
11491;DHT22;5802;52.832;4.758;2023-04-25T12:43:17;26.30;35.10
11491;DHT22;5802;52.832;4.758;2023-04-25T12:45:44;26.30;35.00
11491;DHT22;5802;52.832;4.758;2023-04-25T12:48:11;26.30;32.80
11491;DHT22;5802;52.832;4.758;2023-04-25T12:50:37;26.30;31.90
11491;DHT22;5802;52.832;4.758;2023-04-25T12:53:05;26.30;32.70
11491;DHT22;5802;52.832;4.758;2023-04-25T12:55:32;26.30;33.20
11491;DHT22;5802;52.832;4.758;2023-04-25T12:57:59;26.30;33.60
11491;DHT22;5802;52.832;4.758;2023-04-25T13:00:28;26.30;33.80
11491;DHT22;5802;52.832;4.758;2023-04-25T13:02:55;26.30;33.90
11491;DHT22;5802;52.832;4.758;2023-04-25T13:05:22;26.30;34.10
11491;DHT22;5802;52.832;4.758;2023-04-25T13:07:49;26.30;34.20
11491;DHT22;5802;52.832;4.758;2023-04-25T13:10:17;26.20;34.20
11491;DHT22;5802;52.832;4.758;2023-04-25T13:12:44;26.20;34.30
11491;DHT22;5802;52.832;4.758;2023-04-25T13:15:10;26.20;34.40
11491;DHT22;5802;52.832;4.758;2023-04-25T13:17:37;26.20;34.50
11491;DHT22;5802;52.832;4.758;2023-04-25T13:20:06;26.20;34.50
11491;DHT22;5802;52.832;4.758;2023-04-25T13:22:34;26.10;34.60
11491;DHT22;5802;52.832;4.758;2023-04-25T13:25:02;26.10;34.70
11491;DHT22;5802;52.832;4.758;2023-04-25T13:27:30;26.10;34.80
11491;DHT22;5802;52.832;4.758;2023-04-25T13:29:59;26.10;34.80
11491;DHT22;5802;52.832;4.758;2023-04-25T13:32:25;26.10;34.90
11491;DHT22;5802;52.832;4.758;2023-04-25T13:34:53;26.10;34.90
11491;DHT22;5802;52.832;4.758;2023-04-25T13:37:20;26.20;35.00
11491;DHT22;5802;52.832;4.758;2023-04-25T13:39:49;26.20;34.90
11491;DHT22;5802;52.832;4.758;2023-04-25T13:42:16;26.20;34.90
11491;DHT22;5802;52.832;4.758;2023-04-25T13:44:44;26.20;34.80
11491;DHT22;5802;52.832;4.758;2023-04-25T13:47:11;26.30;34.90
11491;DHT22;5802;52.832;4.758;2023-04-25T13:49:37;26.30;34.80
11491;DHT22;5802;52.832;4.758;2023-04-25T13:52:04;26.30;34.80
11491;DHT22;5802;52.832;4.758;2023-04-25T13:54:30;26.40;34.70
11491;DHT22;5802;52.832;4.758;2023-04-25T13:56:58;26.40;34.70
11491;DHT22;5802;52.832;4.758;2023-04-25T13:59:25;26.40;34.70
11491;DHT22;5802;52.832;4.758;2023-04-25T14:01:53;26.50;34.70
11491;DHT22;5802;52.832;4.758;2023-04-25T14:04:20;26.50;34.60
11491;DHT22;5802;52.832;4.758;2023-04-25T14:06:47;26.50;34.60
11491;DHT22;5802;52.832;4.758;2023-04-25T14:09:13;26.50;34.60
11491;DHT22;5802;52.832;4.758;2023-04-25T14:11:40;26.50;34.60
11491;DHT22;5802;52.832;4.758;2023-04-25T14:14:07;26.60;34.60
11491;DHT22;5802;52.832;4.758;2023-04-25T14:16:34;26.60;34.60
11491;DHT22;5802;52.832;4.758;2023-04-25T14:19:02;26.60;34.60
11491;DHT22;5802;52.832;4.758;2023-04-25T14:21:29;26.60;34.60
11491;DHT22;5802;52.832;4.758;2023-04-25T14:23:57;26.60;34.60
11491;DHT22;5802;52.832;4.758;2023-04-25T14:26:24;26.60;34.60
11491;DHT22;5802;52.832;4.758;2023-04-25T14:28:51;26.60;34.50
11491;DHT22;5802;52.832;4.758;2023-04-25T14:31:18;26.70;34.50
11491;DHT22;5802;52.832;4.758;2023-04-25T14:33:45;26.70;34.40
11491;DHT22;5802;52.832;4.758;2023-04-25T14:36:13;26.70;34.30
11491;DHT22;5802;52.832;4.758;2023-04-25T14:38:40;26.70;34.30
11491;DHT22;5802;52.832;4.758;2023-04-25T14:41:07;26.70;34.90
11491;DHT22;5802;52.832;4.758;2023-04-25T14:43:33;26.70;34.30
11491;DHT22;5802;52.832;4.758;2023-04-25T14:46:00;26.70;34.00
11491;DHT22;5802;52.832;4.758;2023-04-25T14:48:27;26.70;33.90
11491;DHT22;5802;52.832;4.758;2023-04-25T14:50:54;26.70;33.90
11491;DHT22;5802;52.832;4.758;2023-04-25T14:53:23;26.70;33.90
11491;DHT22;5802;52.832;4.758;2023-04-25T14:55:50;26.70;34.60
11491;DHT22;5802;52.832;4.758;2023-04-25T14:58:17;26.70;33.90
11491;DHT22;5802;52.832;4.758;2023-04-25T15:00:43;26.70;33.80
11491;DHT22;5802;52.832;4.758;2023-04-25T15:03:10;26.70;33.60
11491;DHT22;5802;52.832;4.758;2023-04-25T15:05:38;26.70;33.60
11491;DHT22;5802;52.832;4.758;2023-04-25T15:08:05;26.70;33.70
11491;DHT22;5802;52.832;4.758;2023-04-25T15:10:33;26.70;33.70
11491;DHT22;5802;52.832;4.758;2023-04-25T15:13:00;26.70;33.70
11491;DHT22;5802;52.832;4.758;2023-04-25T15:15:27;26.70;33.70
11491;DHT22;5802;52.832;4.758;2023-04-25T15:17:54;26.70;33.70
11491;DHT22;5802;52.832;4.758;2023-04-25T15:20:22;26.70;33.70
11491;DHT22;5802;52.832;4.758;2023-04-25T15:22:49;26.70;32.50
11491;DHT22;5802;52.832;4.758;2023-04-25T15:25:16;26.60;31.10
11491;DHT22;5802;52.832;4.758;2023-04-25T15:27:45;26.50;30.20
11491;DHT22;5802;52.832;4.758;2023-04-25T15:30:14;26.40;30.00
11491;DHT22;5802;52.832;4.758;2023-04-25T15:32:42;26.30;30.70
11491;DHT22;5802;52.832;4.758;2023-04-25T15:35:09;26.30;31.50
11491;DHT22;5802;52.832;4.758;2023-04-25T15:37:36;26.20;31.90
11491;DHT22;5802;52.832;4.758;2023-04-25T15:40:05;26.20;32.30
11491;DHT22;5802;52.832;4.758;2023-04-25T15:42:34;26.20;32.60
11491;DHT22;5802;52.832;4.758;2023-04-25T15:45:03;26.10;31.50
11491;DHT22;5802;52.832;4.758;2023-04-25T15:47:29;26.10;30.30